createdAt,value
2018-08-19T00:01:56.634Z,6.17
2018-08-19T00:04:25.351Z,6.40
2018-08-19T00:06:55.219Z,7.00
2018-08-19T00:09:23.886Z,6.87
2018-08-19T00:11:52.565Z,7.27
2018-08-19T00:14:41.668Z,6.90
2018-08-19T00:17:10.386Z,7.03
2018-08-19T00:19:39.169Z,6.23
2018-08-19T00:22:07.903Z,6.33
2018-08-19T00:24:36.573Z,6.20
2018-08-19T00:27:05.285Z,6.80
2018-08-19T00:29:36.940Z,5.93
2018-08-19T00:32:06.735Z,6.30
2018-08-19T00:34:35.792Z,6.40
2018-08-19T00:37:05.815Z,6.23
2018-08-19T00:39:34.816Z,5.87
2018-08-19T00:42:04.658Z,5.87
2018-08-19T00:44:34.023Z,5.80
2018-08-19T00:47:02.635Z,5.80
2018-08-19T00:49:31.342Z,6.20
2018-08-19T00:52:01.220Z,5.70
2018-08-19T00:54:31.050Z,5.53
2018-08-19T00:57:00.727Z,6.40
2018-08-19T00:59:30.631Z,6.40
2018-08-19T01:01:59.434Z,5.33
2018-08-19T01:04:28.629Z,5.90
2018-08-19T01:06:58.618Z,6.40
2018-08-19T01:09:29.505Z,6.33
2018-08-19T01:11:58.452Z,6.27
2018-08-19T01:14:27.145Z,5.53
2018-08-19T01:16:55.801Z,5.57
2018-08-19T01:19:24.483Z,5.70
2018-08-19T01:21:54.155Z,5.70
2018-08-19T01:24:22.973Z,5.57
2018-08-19T01:26:51.650Z,5.87
2018-08-19T01:29:34.547Z,5.37
2018-08-19T01:32:12.642Z,5.50
2018-08-19T01:34:44.330Z,6.37
2018-08-19T01:37:13.823Z,5.60
2018-08-19T01:39:42.623Z,5.13
2018-08-19T01:42:11.262Z,5.37
2018-08-19T01:44:41.920Z,5.87
2018-08-19T01:47:10.573Z,5.00
2018-08-19T01:49:39.286Z,4.80
2018-08-19T01:52:17.506Z,5.63
2018-08-19T01:54:46.270Z,5.77
2018-08-19T01:57:14.876Z,5.90
2018-08-19T01:59:43.515Z,5.73
2018-08-19T02:02:12.237Z,5.13
2018-08-19T02:04:56.382Z,5.23
2018-08-19T02:07:25.758Z,5.70
2018-08-19T02:10:05.600Z,5.23
2018-08-19T02:12:39.092Z,5.37
2018-08-19T02:15:08.862Z,5.30
2018-08-19T02:17:42.790Z,5.37
2018-08-19T02:20:11.506Z,5.17
2018-08-19T02:22:42.364Z,5.27
2018-08-19T02:25:10.979Z,5.53
2018-08-19T02:27:39.621Z,5.90
2018-08-19T02:30:26.934Z,6.23
2018-08-19T02:32:56.222Z,5.80
2018-08-19T02:35:24.951Z,5.80
2018-08-19T02:37:53.667Z,5.60
2018-08-19T02:40:27.749Z,5.90
2018-08-19T02:42:56.339Z,5.77
2018-08-19T02:45:25.022Z,5.73
2018-08-19T02:47:53.715Z,5.40
2018-08-19T02:50:22.377Z,4.97
2018-08-19T02:52:51.088Z,4.87
2018-08-19T02:55:19.762Z,5.10
2018-08-19T02:57:48.431Z,5.00
2018-08-19T03:00:18.220Z,5.37
2018-08-19T03:02:46.918Z,5.60
2018-08-19T03:05:15.859Z,5.10
2018-08-19T03:07:44.550Z,5.20
2018-08-19T03:10:22.575Z,4.77
2018-08-19T03:12:51.343Z,5.13
2018-08-19T03:15:20.111Z,5.07
2018-08-19T03:17:49.245Z,5.03
2018-08-19T03:20:17.946Z,5.50
2018-08-19T03:22:46.610Z,4.90
2018-08-19T03:25:15.295Z,5.10
2018-08-19T03:27:43.947Z,5.03
2018-08-19T03:30:14.352Z,5.10
2018-08-19T03:32:49.024Z,5.03
2018-08-19T03:35:19.080Z,4.77
2018-08-19T03:37:49.575Z,5.30
2018-08-19T03:40:31.903Z,5.30
2018-08-19T03:43:00.607Z,4.70
2018-08-19T03:45:31.013Z,4.93
2018-08-19T03:47:59.686Z,5.23
2018-08-19T03:50:28.397Z,6.03
2018-08-19T03:52:57.508Z,5.13
2018-08-19T03:55:30.276Z,5.40
2018-08-19T03:58:03.955Z,5.10
2018-08-19T04:00:46.266Z,4.83
2018-08-19T04:03:20.690Z,5.00
2018-08-19T04:05:55.151Z,5.40
2018-08-19T04:08:33.814Z,5.33
2018-08-19T04:11:06.935Z,5.60
2018-08-19T04:13:40.802Z,5.70
2018-08-19T04:16:10.722Z,5.60
2018-08-19T04:18:41.467Z,5.03
2018-08-19T04:21:12.082Z,5.17
2018-08-19T04:23:43.799Z,5.50
2018-08-19T04:26:12.430Z,5.50
2018-08-19T04:28:42.142Z,5.70
2018-08-19T04:31:16.250Z,5.37
2018-08-19T04:33:46.487Z,5.57
2018-08-19T04:36:17.661Z,5.87
2018-08-19T04:38:46.416Z,5.50
2018-08-19T04:41:15.521Z,5.63
2018-08-19T04:43:44.746Z,5.93
2018-08-19T04:46:13.398Z,6.00
2018-08-19T04:48:43.270Z,5.80
2018-08-19T04:51:11.904Z,5.90
2018-08-19T04:53:40.593Z,5.87
2018-08-19T04:56:09.347Z,5.40
2018-08-19T04:58:38.019Z,5.60
2018-08-19T05:01:06.819Z,5.43
2018-08-19T05:03:35.495Z,5.93
2018-08-19T05:06:04.186Z,5.57
2018-08-19T05:08:32.946Z,5.37
2018-08-19T05:11:15.560Z,5.43
2018-08-19T05:13:44.174Z,5.37
2018-08-19T05:16:12.839Z,5.00
2018-08-19T05:18:45.103Z,5.27
2018-08-19T05:21:14.670Z,5.43
2018-08-19T05:23:43.331Z,4.83
2018-08-19T05:26:12.682Z,5.47
2018-08-19T05:28:41.813Z,4.63
2018-08-19T05:31:10.635Z,4.77
2018-08-19T05:33:41.810Z,4.53
2018-08-19T05:36:10.503Z,4.87
2018-08-19T05:38:39.168Z,5.00
2018-08-19T05:41:09.877Z,5.30
2018-08-19T05:43:38.542Z,5.03
2018-08-19T05:46:07.234Z,4.43
2018-08-19T05:48:35.822Z,3.93
2018-08-19T05:51:04.582Z,4.67
2018-08-19T05:53:34.193Z,4.67
2018-08-19T05:56:02.848Z,4.33
2018-08-19T05:58:31.495Z,4.57
2018-08-19T06:01:05.514Z,5.07
2018-08-19T06:03:34.195Z,4.50
2018-08-19T06:06:02.898Z,4.57
2018-08-19T06:08:31.611Z,4.57
2018-08-19T06:11:09.791Z,4.20
2018-08-19T06:13:38.475Z,4.70
2018-08-19T06:16:07.179Z,4.33
2018-08-19T06:18:35.843Z,4.07
2018-08-19T06:21:09.630Z,4.40
2018-08-19T06:23:38.350Z,4.40
2018-08-19T06:26:07.089Z,4.50
2018-08-19T06:28:35.769Z,3.90
2018-08-19T06:31:04.729Z,4.60
2018-08-19T06:33:33.411Z,3.90
2018-08-19T06:36:02.094Z,4.47
2018-08-19T06:38:30.786Z,4.57
2018-08-19T06:40:59.777Z,4.53
2018-08-19T06:43:28.389Z,4.40
2018-08-19T06:45:57.015Z,4.57
2018-08-19T06:48:25.723Z,4.53
2018-08-19T06:50:54.434Z,5.20
2018-08-19T06:53:28.270Z,4.83
2018-08-19T06:55:57.004Z,4.60
2018-08-19T06:58:26.383Z,4.33
2018-08-19T07:00:55.156Z,4.57
2018-08-19T07:03:23.911Z,4.17
2018-08-19T07:06:05.730Z,4.70
2018-08-19T07:08:34.559Z,4.50
2018-08-19T07:11:03.334Z,4.43
2018-08-19T07:13:32.055Z,4.30
2018-08-19T07:16:00.850Z,4.50
2018-08-19T07:18:29.520Z,5.10
2018-08-19T07:20:58.226Z,4.30
2018-08-19T07:23:26.963Z,4.97
2018-08-19T07:25:55.635Z,4.50
2018-08-19T07:28:24.253Z,4.60
2018-08-19T07:30:52.984Z,4.60
2018-08-19T07:33:21.735Z,5.33
2018-08-19T07:35:50.439Z,4.80
2018-08-19T07:38:19.004Z,5.40
2018-08-19T07:40:47.833Z,5.43
2018-08-19T07:43:16.466Z,5.23
2018-08-19T07:45:45.122Z,5.43
2018-08-19T07:48:13.766Z,5.67
2018-08-19T07:50:42.510Z,5.40
2018-08-19T07:53:11.161Z,5.07
2018-08-19T07:55:40.007Z,4.87
2018-08-19T07:58:08.744Z,6.60
2018-08-19T08:00:39.347Z,4.90
2018-08-19T08:03:08.145Z,4.63
2018-08-19T08:05:42.079Z,5.03
2018-08-19T08:08:10.815Z,3.93
2018-08-19T08:10:39.991Z,4.60
2018-08-19T08:13:09.527Z,4.23
2018-08-19T08:15:43.529Z,3.97
2018-08-19T08:18:12.470Z,4.43
2018-08-19T08:20:41.098Z,4.53
2018-08-19T08:23:26.388Z,4.63
2018-08-19T08:25:55.130Z,4.50
2018-08-19T08:28:23.826Z,4.73
2018-08-19T08:31:02.352Z,4.43
2018-08-19T08:33:30.955Z,4.00
2018-08-19T08:35:59.624Z,4.03
2018-08-19T08:38:28.274Z,4.20
2018-08-19T08:40:57.191Z,4.53
2018-08-19T08:43:25.874Z,4.40
2018-08-19T08:45:56.158Z,3.90
2018-08-19T08:48:24.873Z,4.57
2018-08-19T08:50:53.751Z,4.07
2018-08-19T08:53:25.292Z,4.23
2018-08-19T08:55:53.914Z,4.23
2018-08-19T08:58:22.563Z,4.40
2018-08-19T09:00:56.454Z,3.93
2018-08-19T09:03:25.139Z,4.13
2018-08-19T09:05:53.880Z,4.07
2018-08-19T09:08:22.619Z,4.40
2018-08-19T09:10:51.759Z,4.40
2018-08-19T09:13:20.511Z,5.10
2018-08-19T09:15:49.234Z,4.40
2018-08-19T09:18:17.853Z,4.83
2018-08-19T09:20:51.779Z,4.00
2018-08-19T09:23:20.581Z,3.90
2018-08-19T09:25:49.156Z,3.83
2018-08-19T09:28:18.486Z,4.47
2018-08-19T09:30:47.435Z,4.33
2018-08-19T09:33:16.139Z,4.10
2018-08-19T09:35:44.880Z,3.90
2018-08-19T09:38:17.536Z,4.27
2018-08-19T09:40:46.346Z,3.90
2018-08-19T09:43:14.776Z,4.20
2018-08-19T09:45:43.815Z,4.10
2018-08-19T09:48:13.111Z,4.10
2018-08-19T09:50:51.074Z,4.50
2018-08-19T09:53:19.726Z,4.80
2018-08-19T09:55:54.690Z,4.30
2018-08-19T09:58:23.618Z,4.50
2018-08-19T10:00:57.562Z,4.97
2018-08-19T10:03:26.287Z,4.83
2018-08-19T10:05:55.019Z,5.00
2018-08-19T10:08:24.259Z,5.07
2018-08-19T10:10:53.147Z,5.17
2018-08-19T10:13:21.859Z,5.37
2018-08-19T10:15:50.483Z,5.50
2018-08-19T10:18:19.208Z,5.50
2018-08-19T10:20:48.118Z,5.63
2018-08-19T10:23:16.829Z,5.30
2018-08-19T10:25:45.574Z,5.50
2018-08-19T10:28:14.303Z,5.73
2018-08-19T10:30:58.222Z,5.65
2018-08-19T10:33:26.850Z,5.80
2018-08-19T10:35:58.400Z,5.47
2018-08-19T10:38:27.106Z,5.78
2018-08-19T10:41:11.429Z,6.20
2018-08-19T10:43:40.067Z,6.35
2018-08-19T10:46:08.765Z,5.83
2018-08-19T10:48:37.418Z,6.30
2018-08-19T10:51:06.048Z,5.90
2018-08-19T10:53:34.743Z,6.35
2018-08-19T10:56:03.880Z,6.33
2018-08-19T10:58:32.598Z,6.15
2018-08-19T11:01:01.554Z,6.45
2018-08-19T11:03:31.082Z,6.30
2018-08-19T11:05:59.786Z,6.10
2018-08-19T11:08:28.508Z,6.15
2018-08-19T11:11:06.534Z,6.62
2018-08-19T11:13:35.323Z,6.62
2018-08-19T11:16:04.020Z,6.25
2018-08-19T11:18:36.134Z,6.35
2018-08-19T11:21:21.032Z,6.22
2018-08-19T11:23:49.761Z,6.40
2018-08-19T11:26:18.390Z,6.15
2018-08-19T11:28:55.159Z,6.47
2018-08-19T11:31:29.257Z,5.97
2018-08-19T11:34:00.108Z,6.20
2018-08-19T11:36:34.995Z,6.22
2018-08-19T11:39:05.790Z,6.05
2018-08-19T11:41:34.683Z,6.20
2018-08-19T11:44:05.912Z,6.67
2018-08-19T11:46:34.657Z,6.47
2018-08-19T11:49:09.760Z,6.65
2018-08-19T11:51:51.427Z,6.10
2018-08-19T11:54:20.911Z,7.20
2018-08-19T11:56:55.939Z,6.55
2018-08-19T11:59:30.039Z,6.28
2018-08-19T12:02:05.001Z,6.75
2018-08-19T12:04:33.623Z,6.97
2018-08-19T12:07:02.322Z,6.58
2018-08-19T12:09:31.002Z,6.33
2018-08-19T12:11:59.719Z,6.33
2018-08-19T12:14:28.435Z,6.42
2018-08-19T12:16:59.225Z,6.60
2018-08-19T12:19:29.774Z,6.75
2018-08-19T12:22:00.584Z,6.65
2018-08-19T12:24:32.143Z,6.17
2018-08-19T12:27:02.960Z,6.20
2018-08-19T12:29:33.574Z,6.20
2018-08-19T12:32:12.762Z,5.78
2018-08-19T12:34:43.815Z,6.35
2018-08-19T12:37:13.776Z,6.40
2018-08-19T12:39:42.339Z,5.72
2018-08-19T12:42:11.442Z,5.78
2018-08-19T12:44:40.491Z,6.40
2018-08-19T12:47:15.610Z,5.78
2018-08-19T12:49:45.742Z,6.00
2018-08-19T12:52:17.404Z,5.87
2018-08-19T12:54:49.791Z,5.80
2018-08-19T12:57:18.486Z,5.72
2018-08-19T12:59:47.179Z,6.00
2018-08-19T13:02:15.949Z,5.90
2018-08-19T13:04:44.745Z,6.00
2018-08-19T13:07:14.745Z,5.65
2018-08-19T13:09:44.586Z,5.70
2018-08-19T13:12:13.629Z,5.85
2018-08-19T13:14:42.239Z,5.65
2018-08-19T13:17:10.924Z,6.20
2018-08-19T13:19:39.667Z,5.92
2018-08-19T13:22:08.487Z,6.10
2018-08-19T13:24:38.156Z,6.40
2018-08-19T13:27:07.954Z,6.30
2018-08-19T13:29:37.215Z,5.85
2018-08-19T13:32:06.020Z,6.15
2018-08-19T13:34:34.814Z,5.70
2018-08-19T13:37:03.482Z,6.40
2018-08-19T13:39:32.147Z,5.87
2018-08-19T13:42:18.717Z,6.22
2018-08-19T13:44:47.974Z,6.42
2018-08-19T13:47:22.493Z,6.53
2018-08-19T13:49:53.485Z,5.83
2018-08-19T13:52:22.213Z,7.17
2018-08-19T13:54:58.333Z,6.97
2018-08-19T13:57:27.106Z,6.10
2018-08-19T13:59:55.707Z,6.55
2018-08-19T14:02:24.608Z,7.03
2018-08-19T14:04:53.262Z,6.90
2018-08-19T14:07:24.966Z,7.10
2018-08-19T14:09:53.571Z,6.80
2018-08-19T14:12:31.618Z,7.00
2018-08-19T14:15:00.500Z,6.37
2018-08-19T14:17:29.151Z,7.37
2018-08-19T14:19:57.826Z,7.20
2018-08-19T14:22:26.506Z,6.85
2018-08-19T14:24:55.207Z,6.83
2018-08-19T14:27:23.969Z,7.08
2018-08-19T14:29:52.650Z,7.37
2018-08-19T14:32:35.167Z,7.58
2018-08-19T14:35:04.622Z,7.20
2018-08-19T14:37:33.251Z,7.03
2018-08-19T14:40:02.517Z,7.12
2018-08-19T14:42:31.190Z,7.80
2018-08-19T14:45:00.456Z,7.50
2018-08-19T14:47:29.475Z,7.60
2018-08-19T14:49:59.036Z,7.22
2018-08-19T14:52:28.312Z,7.20
2018-08-19T14:54:57.019Z,7.58
2018-08-19T14:57:25.826Z,7.22
2018-08-19T14:59:54.531Z,8.18
2018-08-19T15:02:23.204Z,7.80
2018-08-19T15:04:51.863Z,7.30
2018-08-19T15:07:20.562Z,7.55
2018-08-19T15:09:51.698Z,7.45
2018-08-19T15:12:26.595Z,7.80
2018-08-19T15:14:58.335Z,7.30
2018-08-19T15:17:27.143Z,7.87
2018-08-19T15:19:56.083Z,7.17
2018-08-19T15:22:24.739Z,7.92
2018-08-19T15:24:53.703Z,7.62
2018-08-19T15:27:22.400Z,7.58
2018-08-19T15:30:05.675Z,7.17
2018-08-19T15:35:27.375Z,7.30
2018-08-19T15:37:56.186Z,7.45
2018-08-19T15:40:38.851Z,6.58
2018-08-19T15:43:07.862Z,7.00
2018-08-19T15:45:36.600Z,6.40
2018-08-19T15:48:05.666Z,7.45
2018-08-19T15:50:43.823Z,7.37
2018-08-19T15:53:12.526Z,7.60
2018-08-19T15:55:41.250Z,7.60
2018-08-19T15:58:10.004Z,8.03
2018-08-19T16:00:40.662Z,7.17
2018-08-19T16:03:10.495Z,6.97
2018-08-19T16:05:39.883Z,7.20
2018-08-19T16:08:08.715Z,7.75
2018-08-19T16:10:51.298Z,7.15
2018-08-19T16:13:20.060Z,7.28
2018-08-19T16:15:48.779Z,7.65
2018-08-19T16:18:17.490Z,7.35
2018-08-19T16:20:50.346Z,7.60
2018-08-19T16:23:19.041Z,7.00
2018-08-19T16:25:47.760Z,7.10
2018-08-19T16:28:16.471Z,7.53
2018-08-19T16:30:50.515Z,6.90
2018-08-19T16:33:19.267Z,7.28
2018-08-19T16:35:47.964Z,7.20
2018-08-19T16:38:16.631Z,6.62
2018-08-19T16:40:59.148Z,6.62
2018-08-19T16:43:27.942Z,6.78
2018-08-19T16:45:56.667Z,6.40
2018-08-19T16:48:25.427Z,6.90
2018-08-19T16:51:03.716Z,7.47
2018-08-19T16:53:32.364Z,6.80
2018-08-19T16:56:01.153Z,6.37
2018-08-19T16:58:29.894Z,5.50
2018-08-19T17:00:58.661Z,4.37
2018-08-19T17:03:33.427Z,4.03
2018-08-19T17:06:02.135Z,4.07
2018-08-19T17:08:30.879Z,4.43
2018-08-19T17:10:59.728Z,4.13
2018-08-19T17:13:28.443Z,3.83
2018-08-19T17:15:57.203Z,3.23
2018-08-19T17:18:25.898Z,3.27
2018-08-19T17:20:54.653Z,3.43
2018-08-19T17:23:24.454Z,3.30
2018-08-19T17:25:53.175Z,3.10
2018-08-19T17:28:22.879Z,4.00
2018-08-19T17:30:56.635Z,3.50
2018-08-19T17:33:28.175Z,3.53
2018-08-19T17:35:56.974Z,3.50
2018-08-19T17:38:31.144Z,3.23
2018-08-19T17:41:13.398Z,3.33
2018-08-19T17:43:42.677Z,3.27
2018-08-19T17:46:13.241Z,3.40
2018-08-19T17:48:42.672Z,3.40
2018-08-19T17:51:23.369Z,3.43
2018-08-19T17:53:52.051Z,3.97
2018-08-19T17:56:20.774Z,3.43
2018-08-19T17:58:49.939Z,3.80
2018-08-19T18:01:18.723Z,3.50
2018-08-19T18:03:47.470Z,3.60
2018-08-19T18:06:16.305Z,3.10
2018-08-19T18:08:48.799Z,3.57
2018-08-19T18:11:17.600Z,3.83
2018-08-19T18:13:46.476Z,4.37
2018-08-19T18:16:15.645Z,4.60
2018-08-19T18:18:44.734Z,4.30
2018-08-19T18:21:14.504Z,4.00
2018-08-19T18:23:45.024Z,3.70
2018-08-19T18:26:13.818Z,4.07
2018-08-19T18:28:45.153Z,4.33
2018-08-19T18:31:13.872Z,5.00
2018-08-19T18:33:51.607Z,5.10
2018-08-19T18:36:21.383Z,4.87
2018-08-19T18:38:50.306Z,5.37
2018-08-19T18:41:25.627Z,6.07
2018-08-19T18:43:59.716Z,5.43
2018-08-19T18:46:28.615Z,6.03
2018-08-19T18:49:03.108Z,5.73
2018-08-19T18:51:33.071Z,6.07
2018-08-19T18:54:01.879Z,5.93
2018-08-19T18:56:30.712Z,6.13
2018-08-19T18:58:59.656Z,6.20
2018-08-19T19:01:28.378Z,6.30
2018-08-19T19:03:57.152Z,5.90
2018-08-19T19:06:25.835Z,6.27
2018-08-19T19:08:54.537Z,6.57
2018-08-19T19:11:24.158Z,5.93
2018-08-19T19:13:52.950Z,6.50
2018-08-19T19:16:27.659Z,5.97
2018-08-19T19:18:56.392Z,6.67
2018-08-19T19:21:25.236Z,6.20
2018-08-19T19:23:53.925Z,6.53
2018-08-19T19:26:27.554Z,6.17
2018-08-19T19:28:57.091Z,6.47
2018-08-19T19:31:25.896Z,6.90
2018-08-19T19:34:00.706Z,6.87
2018-08-19T19:36:30.035Z,6.63
2018-08-19T19:38:59.262Z,6.67
2018-08-19T19:41:34.970Z,6.90
2018-08-19T19:44:21.898Z,6.90
2018-08-19T19:46:50.654Z,6.13
2018-08-19T19:49:19.385Z,6.03
2018-08-19T19:51:51.913Z,6.53
2018-08-19T19:54:20.645Z,6.77
2018-08-19T19:56:49.395Z,6.30
2018-08-19T19:59:18.173Z,6.20
2018-08-19T20:01:46.902Z,6.70
2018-08-19T20:04:15.585Z,7.40
2018-08-19T20:06:44.286Z,6.40
2018-08-19T20:09:13.004Z,6.00
2018-08-19T20:11:41.767Z,6.07
2018-08-19T20:14:10.490Z,6.60
2018-08-19T20:16:39.227Z,5.93
2018-08-19T20:19:08.030Z,6.40
2018-08-19T20:21:37.096Z,6.33
2018-08-19T20:24:05.861Z,6.50
2018-08-19T20:26:34.539Z,6.37
2018-08-19T20:29:03.691Z,6.43
2018-08-19T20:31:32.432Z,6.63
2018-08-19T20:34:01.107Z,5.83
2018-08-19T20:36:29.851Z,6.43
2018-08-19T20:38:58.532Z,7.00
2018-08-19T20:41:27.239Z,6.13
2018-08-19T20:43:55.934Z,6.07
2018-08-19T20:46:24.622Z,5.73
2018-08-19T20:48:53.481Z,6.30
2018-08-19T20:51:22.279Z,6.50
2018-08-19T20:53:50.998Z,6.00
2018-08-19T20:56:19.691Z,5.93
2018-08-19T20:58:48.422Z,6.00
2018-08-19T21:01:22.427Z,6.40
2018-08-19T21:03:51.144Z,6.63
2018-08-19T21:06:19.922Z,6.53
2018-08-19T21:08:48.683Z,6.30
2018-08-19T21:11:26.864Z,7.20
2018-08-19T21:13:55.594Z,6.63
2018-08-19T21:16:24.295Z,6.23
2018-08-19T21:18:53.044Z,6.70
2018-08-19T21:21:21.882Z,6.87
2018-08-19T21:23:50.626Z,6.37
2018-08-19T21:26:19.579Z,6.50
2018-08-19T21:29:01.262Z,7.07
2018-08-19T21:31:30.019Z,6.60
2018-08-19T21:33:58.851Z,6.37
2018-08-19T21:36:27.532Z,6.50
2018-08-19T21:38:56.740Z,6.63
2018-08-19T21:41:39.452Z,7.17
2018-08-19T21:44:08.187Z,6.87
2018-08-19T21:46:36.961Z,7.43
2018-08-19T21:49:05.743Z,7.07
2018-08-19T21:51:34.507Z,6.73
2018-08-19T21:54:03.273Z,6.17
2018-08-19T21:56:31.987Z,6.97
2018-08-19T21:59:00.704Z,6.67
2018-08-19T22:01:34.372Z,6.90
2018-08-19T22:04:03.120Z,6.77
2018-08-19T22:06:32.152Z,6.57
2018-08-19T22:09:01.097Z,6.70
2018-08-19T22:11:39.251Z,6.97
2018-08-19T22:14:08.014Z,7.33
2018-08-19T22:16:36.754Z,6.43
2018-08-19T22:19:05.495Z,6.50
2018-08-19T22:21:34.214Z,7.33
2018-08-19T22:24:09.287Z,7.00
2018-08-19T22:26:38.047Z,7.37
2018-08-19T22:29:13.903Z,6.87
2018-08-19T22:31:49.430Z,6.57
2018-08-19T22:34:18.207Z,7.43
2018-08-19T22:36:47.054Z,7.17
2018-08-19T22:39:19.187Z,7.50
2018-08-19T22:41:49.641Z,6.87
2018-08-19T22:44:18.399Z,6.93
2018-08-19T22:46:47.199Z,7.20
2018-08-19T22:49:15.879Z,7.30
2018-08-19T22:51:44.723Z,6.80
2018-08-19T22:54:13.597Z,6.97
2018-08-19T22:56:42.384Z,7.10
2018-08-19T22:59:11.086Z,7.43
2018-08-19T23:01:49.439Z,7.00
2018-08-19T23:04:18.204Z,6.70
2018-08-19T23:06:46.979Z,6.57
2018-08-19T23:09:15.697Z,7.50
2018-08-19T23:11:48.286Z,6.80
2018-08-19T23:14:27.952Z,6.33
2018-08-19T23:16:56.759Z,7.17
2018-08-19T23:19:25.512Z,7.03
2018-08-19T23:21:54.495Z,7.27
2018-08-19T23:24:23.260Z,7.13
2018-08-19T23:26:51.931Z,6.60
2018-08-19T23:29:20.696Z,6.70
2018-08-19T23:31:49.422Z,6.63
2018-08-19T23:34:18.212Z,7.40
2018-08-19T23:36:46.997Z,6.37
2018-08-19T23:39:15.818Z,7.03
2018-08-19T23:41:58.107Z,7.10
2018-08-19T23:44:26.831Z,7.13
2018-08-19T23:46:55.533Z,6.90
2018-08-19T23:49:24.283Z,6.97
2018-08-19T23:51:53.067Z,6.50
2018-08-19T23:54:21.826Z,7.03
2018-08-19T23:56:50.452Z,6.90
2018-08-19T23:59:24.268Z,6.93
